Time;durP1;ratioP1;P1;durP2;ratioP2;P2;SDS_P1;SDS_P2;PMS_P1;PMS_P2;Temp;Humidity;BMP_temperature;BMP_pressure;BME280_temperature;BME280_humidity;BME280_pressure;Samples;Min_cycle;Max_cycle;Signal;HPM_P1;HPM_P2
2022/09/04 00:02:47;;;;;;;2.15;1.50;;;15.50;90.70;;;;;;4994441;28;20215;-87
2022/09/04 00:05:38;;;;;;;5.93;1.70;;;15.40;91.00;;;;;;4978014;28;20623;-86
2022/09/04 00:08:18;;;;;;;4.07;1.67;;;15.30;91.00;;;;;;4995767;28;20200;-86
2022/09/04 00:11:19;;;;;;;3.47;1.55;;;15.30;91.20;;;;;;4995983;28;20186;-86
2022/09/04 00:14:09;;;;;;;4.47;1.45;;;15.40;91.30;;;;;;4991026;28;20223;-85
2022/09/04 00:16:51;;;;;;;2.85;1.70;;;15.40;91.30;;;;;;4999221;28;20190;-86
2022/09/04 00:19:35;;;;;;;3.95;1.52;;;15.30;91.30;;;;;;4978502;28;20223;-85
2022/09/04 00:22:19;;;;;;;2.15;1.50;;;15.20;91.40;;;;;;4984851;28;20188;-86
2022/09/04 00:25:00;;;;;;;3.60;1.50;;;15.20;91.40;;;;;;4992070;28;20184;-85
2022/09/04 00:27:42;;;;;;;4.10;1.65;;;15.20;91.40;;;;;;4995459;28;20824;-86
2022/09/04 00:30:13;;;;;;;5.22;1.42;;;15.10;91.60;;;;;;4977721;28;20202;-85
2022/09/04 00:33:04;;;;;;;2.25;1.42;;;15.10;91.80;;;;;;4983597;28;20191;-85
2022/09/04 00:35:35;;;;;;;1.65;1.27;;;15.10;91.90;;;;;;4974916;28;20271;-85
2022/09/04 00:38:18;;;;;;;6.40;1.40;;;15.10;91.90;;;;;;4995049;28;20180;-86
2022/09/04 00:41:02;;;;;;;2.88;1.42;;;15.10;91.90;;;;;;4982807;28;20236;-85
2022/09/04 00:44:06;;;;;;;5.85;1.60;;;15.10;91.90;;;;;;4977510;28;20269;-84
2022/09/04 00:47:00;;;;;;;2.55;1.60;;;15.10;92.00;;;;;;4985938;28;20214;-85
2022/09/04 00:49:37;;;;;;;3.08;1.50;;;15.10;92.00;;;;;;4977546;28;20215;-85
2022/09/04 00:52:45;;;;;;;3.03;1.75;;;15.10;92.00;;;;;;4977621;28;20654;-85
2022/09/04 00:55:37;;;;;;;2.25;1.40;;;15.00;92.10;;;;;;4992651;28;20188;-85
2022/09/04 00:58:11;;;;;;;5.57;1.60;;;15.00;92.20;;;;;;4977712;28;20198;-85
2022/09/04 01:00:37;;;;;;;2.00;1.40;;;14.90;92.50;;;;;;4994830;28;20184;-85
2022/09/04 01:03:06;;;;;;;3.25;1.50;;;14.90;92.30;;;;;;4994521;28;20230;-85
2022/09/04 01:06:01;;;;;;;3.88;1.50;;;14.90;92.40;;;;;;4977467;28;20614;-85
2022/09/04 01:08:54;;;;;;;3.08;1.60;;;14.90;92.50;;;;;;4976971;28;20243;-86
2022/09/04 01:11:36;;;;;;;5.03;1.63;;;14.80;92.60;;;;;;4973421;28;20701;-85
2022/09/04 01:14:09;;;;;;;2.10;1.67;;;14.80;92.80;;;;;;4994625;28;20557;-85
2022/09/04 01:16:58;;;;;;;2.13;1.50;;;14.70;92.90;;;;;;4994460;28;20286;-84
2022/09/04 01:20:11;;;;;;;2.67;1.80;;;14.60;93.00;;;;;;4977235;28;20191;-85
2022/09/04 01:23:14;;;;;;;2.33;1.45;;;14.60;93.00;;;;;;4930848;28;20580;-85
2022/09/04 01:25:59;;;;;;;2.97;1.60;;;14.60;93.10;;;;;;4961694;28;20191;-84
2022/09/04 01:28:39;;;;;;;4.18;2.00;;;14.60;93.00;;;;;;4988487;28;20670;-85
2022/09/04 01:31:33;;;;;;;3.60;1.85;;;14.50;92.90;;;;;;4976788;28;20185;-85
2022/09/04 01:34:04;;;;;;;5.05;1.70;;;14.60;93.00;;;;;;4994192;28;20179;-86
2022/09/04 01:36:54;;;;;;;4.90;2.63;;;14.50;93.10;;;;;;4993126;28;20180;-85
2022/09/04 01:39:23;;;;;;;4.32;1.75;;;14.50;93.00;;;;;;4993795;28;20186;-85
2022/09/04 01:41:56;;;;;;;2.33;1.75;;;14.50;93.10;;;;;;4994192;28;20227;-85
2022/09/04 01:44:22;;;;;;;3.25;1.70;;;14.50;93.00;;;;;;4977007;28;20575;-84
2022/09/04 01:47:03;;;;;;;3.85;2.00;;;14.50;93.00;;;;;;5000043;28;20218;-85
2022/09/04 01:49:44;;;;;;;2.60;1.42;;;14.60;92.90;;;;;;4977045;28;20246;-85
2022/09/04 01:52:17;;;;;;;2.92;1.70;;;14.50;93.20;;;;;;4992931;28;20278;-85
2022/09/04 01:54:58;;;;;;;3.92;1.65;;;14.40;93.00;;;;;;4992602;28;20268;-84
2022/09/04 01:57:24;;;;;;;2.10;1.45;;;14.40;92.90;;;;;;4994267;28;20184;-85
2022/09/04 02:00:13;;;;;;;2.30;1.55;;;14.30;93.00;;;;;;4993874;28;20180;-85
2022/09/04 02:03:03;;;;;;;7.22;1.65;;;14.30;93.10;;;;;;4992214;28;20187;-85
2022/09/04 02:05:34;;;;;;;3.50;1.45;;;14.40;93.20;;;;;;4994093;28;20171;-85
2022/09/04 02:08:08;;;;;;;6.20;1.58;;;14.30;93.30;;;;;;4976687;28;20215;-85
2022/09/04 02:10:51;;;;;;;3.00;1.60;;;14.20;93.30;;;;;;4992700;28;20580;-85
2022/09/04 02:14:03;;;;;;;3.28;1.55;;;14.10;93.50;;;;;;4972353;28;20237;-85
2022/09/04 02:17:02;;;;;;;1.92;1.40;;;14.10;93.50;;;;;;4949615;29;20182;-85
2022/09/04 02:19:35;;;;;;;3.83;1.70;;;14.10;93.50;;;;;;4933892;29;20181;-85
2022/09/04 02:22:14;;;;;;;5.10;1.70;;;14.10;93.50;;;;;;4984478;28;20195;-84
2022/09/04 02:25:20;;;;;;;2.20;1.50;;;14.00;93.50;;;;;;4997953;28;20622;-85
2022/09/04 02:27:57;;;;;;;2.22;1.45;;;14.00;93.60;;;;;;4980665;28;20227;-85
2022/09/04 02:30:23;;;;;;;3.40;2.08;;;13.90;93.60;;;;;;4997463;28;20179;-84
2022/09/04 02:33:14;;;;;;;3.10;1.52;;;13.90;93.60;;;;;;4993906;28;20179;-84
2022/09/04 02:35:55;;;;;;;8.65;1.90;;;13.90;93.80;;;;;;4972547;28;20188;-85
2022/09/04 02:38:53;;;;;;;2.70;1.67;;;13.90;93.70;;;;;;4997841;28;20253;-85
2022/09/04 02:41:34;;;;;;;2.53;1.77;;;13.80;94.20;;;;;;4996209;28;20348;-85
2022/09/04 02:44:27;;;;;;;3.75;1.58;;;13.80;94.10;;;;;;4993442;28;20614;-85
2022/09/04 02:47:18;;;;;;;2.75;1.50;;;13.80;94.10;;;;;;5458706;22;20317;-85
2022/09/04 02:49:57;;;;;;;3.63;1.65;;;13.70;94.20;;;;;;5049697;28;20206;-85
2022/09/04 02:52:48;;;;;;;2.97;1.60;;;13.60;94.20;;;;;;5048216;28;20291;-85
2022/09/04 02:55:32;;;;;;;4.20;1.67;;;13.70;94.10;;;;;;5030568;28;20205;-84
2022/09/04 02:58:14;;;;;;;2.63;1.85;;;13.70;94.10;;;;;;5035762;28;20182;-85
2022/09/04 03:01:06;;;;;;;5.75;1.90;;;13.70;94.20;;;;;;5036278;28;20178;-85
2022/09/04 03:03:42;;;;;;;2.95;1.55;;;13.70;94.30;;;;;;5034016;28;20181;-85
2022/09/04 03:06:13;;;;;;;4.18;1.75;;;13.80;94.20;;;;;;5051796;28;20189;-85
2022/09/04 03:08:46;;;;;;;4.30;1.85;;;13.80;94.30;;;;;;5036331;28;20206;-84
2022/09/04 03:11:26;;;;;;;3.72;2.00;;;13.80;94.30;;;;;;5035545;28;20174;-84
2022/09/04 03:14:04;;;;;;;2.97;1.60;;;13.70;94.30;;;;;;5035083;28;20605;-84
2022/09/04 03:16:57;;;;;;;2.78;1.70;;;13.70;94.40;;;;;;5035579;28;20186;-85
2022/09/04 03:19:45;;;;;;;5.97;1.67;;;13.70;94.60;;;;;;5034583;28;20182;-85
2022/09/04 03:22:27;;;;;;;2.72;1.58;;;13.60;94.90;;;;;;5027804;28;20265;-84
2022/09/04 03:25:05;;;;;;;7.55;2.00;;;13.60;94.80;;;;;;5034662;28;20222;-85
2022/09/04 03:27:33;;;;;;;2.95;1.83;;;13.60;94.80;;;;;;5036106;28;20175;-85
2022/09/04 03:30:04;;;;;;;3.13;2.00;;;13.60;95.10;;;;;;5036036;28;20178;-85
2022/09/04 03:32:33;;;;;;;4.13;1.90;;;13.60;95.00;;;;;;5033513;28;20183;-84
2022/09/04 03:35:23;;;;;;;5.82;1.95;;;13.60;95.20;;;;;;5036100;28;20224;-85
2022/09/04 03:38:14;;;;;;;4.07;1.77;;;13.60;95.10;;;;;;5035981;28;20177;-84
2022/09/04 03:41:11;;;;;;;4.20;1.80;;;13.60;95.10;;;;;;5035932;28;20186;-85
2022/09/04 03:44:08;;;;;;;7.35;1.88;;;13.70;94.60;;;;;;5050832;28;20531;-85
2022/09/04 03:46:58;;;;;;;8.98;2.15;;;13.80;94.70;;;;;;5049993;28;20241;-86
2022/09/04 03:49:37;;;;;;;4.28;1.90;;;13.80;94.60;;;;;;5047396;28;20256;-84
2022/09/04 03:52:17;;;;;;;10.35;2.38;;;13.90;94.50;;;;;;5027866;28;20200;-85
2022/09/04 03:55:02;;;;;;;3.78;1.60;;;13.90;94.50;;;;;;5050964;28;20639;-85
2022/09/04 03:57:45;;;;;;;3.72;2.10;;;13.90;94.50;;;;;;5044699;28;20232;-84
2022/09/04 04:00:19;;;;;;;2.70;1.88;;;13.90;94.60;;;;;;5035231;28;20174;-83
2022/09/04 04:03:18;;;;;;;4.72;1.98;;;13.90;94.60;;;;;;5035279;28;20189;-84
2022/09/04 04:06:17;;;;;;;4.53;2.30;;;13.90;94.40;;;;;;5031709;28;20174;-83
2022/09/04 04:09:17;;;;;;;3.83;2.17;;;13.90;94.60;;;;;;5028999;28;20280;-85
2022/09/04 04:12:05;;;;;;;2.85;1.80;;;13.90;94.60;;;;;;5034996;28;20178;-84
2022/09/04 04:14:37;;;;;;;5.60;2.08;;;13.90;94.80;;;;;;5047051;28;20241;-85
2022/09/04 04:17:23;;;;;;;3.78;2.10;;;13.90;94.80;;;;;;5041811;28;20174;-84
2022/09/04 04:20:04;;;;;;;3.80;2.05;;;13.80;94.90;;;;;;5039199;28;20222;-85
2022/09/04 04:23:16;;;;;;;4.35;2.15;;;13.80;94.80;;;;;;5033916;28;20186;-84
2022/09/04 04:26:02;;;;;;;3.30;1.90;;;13.80;94.90;;;;;;5032185;28;20178;-84
2022/09/04 04:28:38;;;;;;;4.50;1.83;;;13.70;94.90;;;;;;5029622;28;20713;-84
2022/09/04 04:32:09;;;;;;;4.40;2.10;;;13.70;95.00;;;;;;5023581;28;20167;-83
2022/09/04 04:35:09;;;;;;;2.70;2.00;;;13.70;95.00;;;;;;5001856;28;20657;-85
2022/09/04 04:37:54;;;;;;;5.78;1.90;;;13.70;95.00;;;;;;5016246;28;20206;-84
2022/09/04 04:40:32;;;;;;;2.55;1.83;;;13.60;95.20;;;;;;5018807;28;20178;-84
2022/09/04 04:43:06;;;;;;;7.32;2.20;;;13.60;95.20;;;;;;5033029;28;20178;-84
2022/09/04 04:45:49;;;;;;;4.00;2.05;;;13.60;95.50;;;;;;5034269;28;20166;-84
2022/09/04 04:48:41;;;;;;;4.38;2.00;;;13.50;95.50;;;;;;5033021;28;20226;-85
2022/09/04 04:51:22;;;;;;;7.15;2.20;;;13.40;95.80;;;;;;5031766;28;20186;-84
2022/09/04 04:54:11;;;;;;;5.00;2.15;;;13.40;95.70;;;;;;5033955;28;20182;-85
2022/09/04 04:56:48;;;;;;;2.97;2.00;;;13.40;95.70;;;;;;5049463;28;20179;-84
2022/09/04 04:59:25;;;;;;;4.80;2.28;;;13.50;95.80;;;;;;5034573;28;20190;-83
2022/09/04 05:02:24;;;;;;;9.10;2.17;;;13.50;95.90;;;;;;5033767;28;20182;-84
2022/09/04 05:05:06;;;;;;;4.68;2.08;;;13.50;96.00;;;;;;5022267;28;20274;-83
2022/09/04 05:07:42;;;;;;;2.95;1.80;;;13.50;95.90;;;;;;5034227;28;20613;-84
2022/09/04 05:10:22;;;;;;;3.75;2.08;;;13.50;95.70;;;;;;5033737;28;20178;-84
2022/09/04 05:13:05;;;;;;;3.63;2.10;;;13.50;95.80;;;;;;5033847;28;20177;-84
2022/09/04 05:15:42;;;;;;;2.28;1.73;;;13.50;95.80;;;;;;5033743;28;20261;-84
2022/09/04 05:18:21;;;;;;;3.38;1.92;;;13.60;96.00;;;;;;5033635;28;20189;-84
2022/09/04 05:21:07;;;;;;;3.45;2.22;;;13.50;95.80;;;;;;5032317;28;20178;-84
2022/09/04 05:23:48;;;;;;;3.58;1.90;;;13.50;95.80;;;;;;5033382;28;20178;-84
2022/09/04 05:26:44;;;;;;;3.33;2.05;;;13.60;95.70;;;;;;5033522;28;20221;-83
2022/09/04 05:29:13;;;;;;;2.97;1.60;;;13.60;95.80;;;;;;5040597;28;20230;-84
2022/09/04 05:32:12;;;;;;;3.65;2.03;;;13.60;95.90;;;;;;5032136;28;20269;-84
2022/09/04 05:35:10;;;;;;;5.93;1.92;;;13.60;96.00;;;;;;5032319;28;20213;-84
2022/09/04 05:37:52;;;;;;;4.38;1.63;;;13.60;96.00;;;;;;5028359;28;20601;-84
2022/09/04 05:40:28;;;;;;;4.72;1.90;;;13.60;96.20;;;;;;5015575;28;20278;-84
2022/09/04 05:43:11;;;;;;;5.05;1.90;;;13.70;96.30;;;;;;5032383;28;20265;-83
2022/09/04 05:46:05;;;;;;;4.13;1.73;;;13.70;96.40;;;;;;5033184;28;20492;-84
2022/09/04 05:48:58;;;;;;;5.10;2.25;;;13.80;96.40;;;;;;5038812;28;20213;-84
2022/09/04 05:51:43;;;;;;;4.05;2.05;;;13.90;96.30;;;;;;5033295;28;20305;-83
2022/09/04 05:54:51;;;;;;;7.80;1.90;;;13.90;96.40;;;;;;5028714;28;20209;-81
2022/09/04 05:57:46;;;;;;;2.83;2.13;;;14.10;96.20;;;;;;5033366;28;20174;-85
2022/09/04 06:00:15;;;;;;;6.88;2.10;;;14.10;95.90;;;;;;5008746;28;20194;-85
2022/09/04 06:03:07;;;;;;;3.97;2.08;;;14.20;95.80;;;;;;5033474;28;20182;-84
2022/09/04 06:05:59;;;;;;;4.95;1.80;;;14.30;95.60;;;;;;5036370;28;20563;-85
2022/09/04 06:08:56;;;;;;;4.03;2.28;;;14.40;95.30;;;;;;5031344;28;20213;-84
2022/09/04 06:11:46;;;;;;;4.60;1.95;;;14.50;95.30;;;;;;5032258;28;20210;-84
2022/09/04 06:14:55;;;;;;;5.80;2.33;;;14.50;95.10;;;;;;5031987;28;20202;-85
2022/09/04 06:17:50;;;;;;;2.53;1.77;;;14.60;95.20;;;;;;5031286;28;20178;-85
2022/09/04 06:20:53;;;;;;;2.55;1.80;;;14.70;95.00;;;;;;5031813;28;20240;-84
2022/09/04 06:23:41;;;;;;;3.67;1.90;;;14.70;95.00;;;;;;5028296;28;20181;-85
2022/09/04 06:26:49;;;;;;;4.05;2.20;;;14.80;95.00;;;;;;5048199;28;20509;-84
2022/09/04 06:29:34;;;;;;;4.05;1.90;;;14.90;94.70;;;;;;5033048;28;20245;-84
2022/09/04 06:32:16;;;;;;;2.72;2.10;;;14.90;94.80;;;;;;5031967;28;20171;-85
2022/09/04 06:34:45;;;;;;;8.00;2.25;;;15.00;94.90;;;;;;5032117;28;20229;-86
2022/09/04 06:37:19;;;;;;;8.10;2.17;;;15.10;94.80;;;;;;5031148;28;20186;-84
2022/09/04 06:40:14;;;;;;;4.47;1.90;;;15.20;94.50;;;;;;5029803;28;20217;-84
2022/09/04 06:43:07;;;;;;;2.40;1.83;;;15.20;94.30;;;;;;5030844;28;20206;-84
2022/09/04 06:46:11;;;;;;;7.72;2.45;;;15.30;94.30;;;;;;5025126;28;20273;-84
2022/09/04 06:49:12;;;;;;;3.58;1.85;;;15.40;94.20;;;;;;5027508;28;20297;-85
2022/09/04 06:52:06;;;;;;;3.42;1.77;;;15.40;94.00;;;;;;5048125;28;20200;-85
2022/09/04 06:54:46;;;;;;;3.67;2.40;;;15.50;94.00;;;;;;5025367;28;20182;-84
2022/09/04 06:57:52;;;;;;;5.10;2.20;;;15.50;93.90;;;;;;5030195;28;20181;-85
2022/09/04 07:00:19;;;;;;;3.20;2.03;;;15.60;94.00;;;;;;5045617;28;20281;-84
2022/09/04 07:03:08;;;;;;;4.63;2.50;;;15.70;93.80;;;;;;5031576;28;20260;-84
2022/09/04 07:06:04;;;;;;;5.57;2.20;;;15.70;93.90;;;;;;5026970;28;20175;-85
2022/09/04 07:09:05;;;;;;;3.00;2.20;;;15.80;94.00;;;;;;5033381;28;20293;-84
2022/09/04 07:11:48;;;;;;;5.63;2.10;;;15.80;94.10;;;;;;5034788;28;20272;-83
2022/09/04 07:14:29;;;;;;;4.78;2.10;;;15.90;93.70;;;;;;5030593;28;20186;-84
2022/09/04 07:17:10;;;;;;;3.10;1.90;;;16.00;93.80;;;;;;5031127;28;20194;-84
2022/09/04 07:20:10;;;;;;;5.82;2.17;;;16.10;93.70;;;;;;5034387;28;20182;-83
2022/09/04 07:23:01;;;;;;;3.50;2.10;;;16.20;93.60;;;;;;5050709;28;20640;-85
2022/09/04 07:25:59;;;;;;;2.88;2.10;;;16.30;93.50;;;;;;5050713;28;20645;-83
2022/09/04 07:29:21;;;;;;;4.15;2.35;;;16.40;93.60;;;;;;5034991;28;20252;-84
2022/09/04 07:32:14;;;;;;;3.20;2.08;;;16.50;93.60;;;;;;4954600;28;20185;-83
2022/09/04 07:34:46;;;;;;;4.38;2.30;;;16.70;93.40;;;;;;4954584;29;20181;-83
2022/09/04 07:37:26;;;;;;;6.20;2.78;;;16.80;93.30;;;;;;5019531;28;20197;-83
2022/09/04 07:40:04;;;;;;;6.43;2.75;;;16.90;93.10;;;;;;5034646;28;20189;-83
2022/09/04 07:43:02;;;;;;;3.63;2.47;;;17.00;93.10;;;;;;5043276;28;20186;-82
2022/09/04 07:45:38;;;;;;;7.00;2.38;;;17.10;92.80;;;;;;5026979;28;20174;-83
2022/09/04 07:48:31;;;;;;;4.72;2.55;;;17.20;93.00;;;;;;5034668;28;20206;-84
2022/09/04 07:51:03;;;;;;;3.78;2.38;;;17.40;92.80;;;;;;5035020;28;20190;-83
2022/09/04 07:53:50;;;;;;;4.18;2.60;;;17.50;93.00;;;;;;5034438;28;20182;-83
2022/09/04 07:56:28;;;;;;;6.47;2.47;;;17.60;92.50;;;;;;5033494;28;20586;-86
2022/09/04 07:58:53;;;;;;;6.88;2.67;;;17.60;93.30;;;;;;5050691;28;20205;-86
2022/09/04 08:01:29;;;;;;;7.65;2.50;;;17.70;94.20;;;;;;5033823;28;20190;-84
2022/09/04 08:04:31;;;;;;;13.13;2.75;;;17.80;93.40;;;;;;5034633;28;20178;-84
2022/09/04 08:07:05;;;;;;;5.78;3.03;;;18.00;93.30;;;;;;5028574;28;20280;-83
2022/09/04 08:10:21;;;;;;;3.45;2.33;;;18.00;93.40;;;;;;5033240;28;20202;-83
2022/09/04 08:13:11;;;;;;;5.30;2.38;;;18.10;93.40;;;;;;5035090;28;20175;-84
2022/09/04 08:16:05;;;;;;;6.68;2.47;;;18.10;93.20;;;;;;5034175;28;20182;-82
2022/09/04 08:18:39;;;;;;;5.13;2.65;;;18.10;93.20;;;;;;5031182;28;20182;-86
2022/09/04 08:21:11;;;;;;;4.25;2.80;;;18.20;93.50;;;;;;5027908;28;20208;-84
2022/09/04 08:23:48;;;;;;;7.32;2.40;;;18.30;93.70;;;;;;5034836;28;20317;-84
2022/09/04 08:26:38;;;;;;;4.32;2.40;;;18.40;93.10;;;;;;5026553;28;20171;-85
2022/09/04 08:29:48;;;;;;;4.03;2.78;;;18.40;92.80;;;;;;5033393;28;20202;-84
2022/09/04 08:32:47;;;;;;;13.00;3.00;;;18.50;93.30;;;;;;5044231;28;20618;-84
2022/09/04 08:35:33;;;;;;;7.03;2.55;;;18.60;92.80;;;;;;5042224;28;20190;-84
2022/09/04 08:38:25;;;;;;;5.68;2.53;;;18.70;92.80;;;;;;5033193;28;20316;-85
2022/09/04 08:41:44;;;;;;;5.45;2.70;;;18.80;92.30;;;;;;5033502;28;20214;-85
2022/09/04 08:44:37;;;;;;;3.97;2.60;;;19.00;92.10;;;;;;5015824;28;20194;-83
2022/09/04 08:47:50;;;;;;;5.75;2.92;;;19.10;92.70;;;;;;5039049;28;20558;-85
2022/09/04 08:50:52;;;;;;;4.18;2.95;;;19.20;92.10;;;;;;5031407;28;20229;-85
2022/09/04 08:53:45;;;;;;;4.18;2.63;;;19.30;92.50;;;;;;5032313;28;20261;-84
2022/09/04 08:56:25;;;;;;;3.97;2.97;;;19.40;92.00;;;;;;5033388;28;20216;-84
2022/09/04 08:59:15;;;;;;;4.28;2.83;;;19.50;91.90;;;;;;5034260;28;20605;-84
2022/09/04 09:02:02;;;;;;;3.85;2.45;;;19.60;92.10;;;;;;5033622;28;20175;-84
2022/09/04 09:04:31;;;;;;;6.13;2.90;;;19.60;91.80;;;;;;5049677;28;20512;-84
2022/09/04 09:07:27;;;;;;;4.82;2.70;;;19.70;92.30;;;;;;5049197;28;20264;-83
2022/09/04 09:10:11;;;;;;;3.17;2.88;;;19.80;91.90;;;;;;5045497;28;20218;-84
2022/09/04 09:13:11;;;;;;;4.40;2.78;;;19.90;91.70;;;;;;5035698;28;20235;-84
2022/09/04 09:15:55;;;;;;;4.30;2.83;;;20.00;91.40;;;;;;5033816;28;20170;-84
2022/09/04 09:19:06;;;;;;;7.80;2.88;;;20.10;91.40;;;;;;5043609;28;20184;-82
2022/09/04 09:21:50;;;;;;;5.10;2.90;;;20.20;91.40;;;;;;5033910;28;20177;-84
2022/09/04 09:24:30;;;;;;;6.35;3.08;;;20.30;91.30;;;;;;5034268;28;20181;-83
2022/09/04 09:27:17;;;;;;;3.65;2.65;;;20.30;90.70;;;;;;5033972;28;20182;-83
2022/09/04 09:30:06;;;;;;;4.80;2.85;;;20.50;91.30;;;;;;5030134;28;20641;-83
2022/09/04 09:32:44;;;;;;;3.50;2.80;;;20.60;91.50;;;;;;5020987;28;20648;-82
2022/09/04 09:35:51;;;;;;;5.32;2.95;;;20.70;90.90;;;;;;5033608;28;20210;-83
2022/09/04 09:38:48;;;;;;;4.88;2.90;;;20.90;91.00;;;;;;5034514;28;20232;-83
2022/09/04 09:41:16;;;;;;;8.88;2.60;;;21.00;90.50;;;;;;5033363;28;20189;-84
2022/09/04 09:44:19;;;;;;;5.43;2.45;;;21.00;90.90;;;;;;5032017;28;20502;-83
2022/09/04 09:47:08;;;;;;;3.53;2.70;;;21.20;90.30;;;;;;5030404;28;20222;-82
2022/09/04 09:49:37;;;;;;;4.68;3.15;;;21.30;89.90;;;;;;5031427;28;20194;-85
2022/09/04 09:52:21;;;;;;;6.07;3.03;;;21.40;89.20;;;;;;5012234;28;20199;-82
2022/09/04 09:55:20;;;;;;;4.10;2.78;;;21.50;89.40;;;;;;5029913;28;20186;-84
2022/09/04 09:58:13;;;;;;;5.55;2.65;;;21.50;90.00;;;;;;5029661;28;20187;-84
2022/09/04 10:00:51;;;;;;;3.78;2.67;;;21.70;90.00;;;;;;5032045;28;20182;-85
2022/09/04 10:03:41;;;;;;;6.10;3.45;;;21.70;88.30;;;;;;5048420;28;20245;-84
2022/09/04 10:06:45;;;;;;;5.45;2.90;;;21.80;88.70;;;;;;5030885;28;20186;-84
2022/09/04 10:09:41;;;;;;;4.03;2.60;;;21.80;88.50;;;;;;5032029;28;20240;-84
2022/09/04 10:12:38;;;;;;;4.35;2.75;;;22.00;89.70;;;;;;5031977;28;20175;-84
2022/09/04 10:15:35;;;;;;;3.78;2.72;;;22.00;89.10;;;;;;5033357;28;20558;-85
2022/09/04 10:18:31;;;;;;;3.53;2.50;;;22.10;88.10;;;;;;5033035;28;20585;-84
2022/09/04 10:21:23;;;;;;;4.50;2.55;;;22.30;88.60;;;;;;5031516;28;20190;-85
2022/09/04 10:24:16;;;;;;;3.47;2.15;;;22.30;88.30;;;;;;5045567;28;20171;-84
2022/09/04 10:26:47;;;;;;;3.63;2.50;;;22.50;88.20;;;;;;5032042;28;20246;-85
2022/09/04 10:29:43;;;;;;;4.55;2.80;;;22.50;87.20;;;;;;5032969;28;20210;-83
2022/09/04 10:32:31;;;;;;;4.63;2.50;;;22.50;86.90;;;;;;5031378;28;20184;-84
2022/09/04 10:35:08;;;;;;;4.28;2.78;;;22.60;86.80;;;;;;5048369;28;20236;-83
2022/09/04 10:37:51;;;;;;;3.92;2.22;;;22.70;86.60;;;;;;5031485;28;20576;-83
2022/09/04 10:40:36;;;;;;;5.97;2.50;;;22.80;85.60;;;;;;5033032;28;20249;-82
2022/09/04 10:43:09;;;;;;;3.60;2.50;;;22.90;86.10;;;;;;5036680;28;20213;-84
2022/09/04 10:45:44;;;;;;;2.67;2.30;;;22.90;87.60;;;;;;5037045;28;20182;-82
2022/09/04 10:48:19;;;;;;;3.65;2.28;;;23.00;85.80;;;;;;5051803;28;20240;-84
2022/09/04 10:51:18;;;;;;;5.25;2.67;;;23.10;85.50;;;;;;5037024;28;20184;-84
2022/09/04 10:53:51;;;;;;;3.55;2.40;;;23.20;85.60;;;;;;5036782;28;20213;-83
2022/09/04 10:56:26;;;;;;;3.92;2.33;;;23.20;85.30;;;;;;5036927;28;20631;-84
2022/09/04 10:59:09;;;;;;;3.55;2.35;;;23.30;85.00;;;;;;5036861;28;20166;-84
2022/09/04 11:02:10;;;;;;;2.92;2.10;;;23.40;84.50;;;;;;5035210;28;20194;-83
2022/09/04 11:05:19;;;;;;;4.10;2.40;;;23.50;85.10;;;;;;5025514;28;20187;-81
2022/09/04 11:08:37;;;;;;;3.28;2.60;;;23.60;85.50;;;;;;5034588;28;20178;-83
2022/09/04 11:11:27;;;;;;;3.70;2.53;;;23.60;83.90;;;;;;5015399;28;20198;-84
2022/09/04 11:14:12;;;;;;;5.10;2.40;;;23.70;84.20;;;;;;5033946;28;20166;-84
2022/09/04 11:17:14;;;;;;;3.17;2.33;;;23.80;83.60;;;;;;5034013;28;20178;-84
2022/09/04 11:20:00;;;;;;;5.28;2.22;;;23.90;83.70;;;;;;5035599;28;20162;-84
2022/09/04 11:23:13;;;;;;;5.70;2.10;;;24.00;82.90;;;;;;5051795;28;20505;-82
2022/09/04 11:26:10;;;;;;;5.75;2.25;;;24.10;82.90;;;;;;5036705;28;20163;-85
2022/09/04 11:28:59;;;;;;;3.25;2.20;;;24.10;82.40;;;;;;5036308;28;20293;-85
2022/09/04 11:31:47;;;;;;;6.35;2.35;;;24.20;82.60;;;;;;5035980;28;20269;-83
2022/09/04 11:34:31;;;;;;;3.72;2.45;;;24.20;82.80;;;;;;5051605;28;20175;-85
2022/09/04 11:37:35;;;;;;;3.60;2.10;;;24.30;82.30;;;;;;5036045;28;20304;-83
2022/09/04 11:40:24;;;;;;;4.15;2.42;;;24.30;83.00;;;;;;5035676;28;20178;-84
2022/09/04 11:43:29;;;;;;;2.33;1.85;;;24.30;82.00;;;;;;5036121;28;20167;-84
2022/09/04 11:46:33;;;;;;;5.25;2.10;;;24.30;82.30;;;;;;5035572;28;20243;-83
2022/09/04 11:49:20;;;;;;;5.15;2.22;;;24.40;82.30;;;;;;5034594;28;20229;-83
2022/09/04 11:52:06;;;;;;;6.63;2.10;;;24.50;82.70;;;;;;5034205;28;20504;-84
2022/09/04 11:54:46;;;;;;;4.13;2.75;;;24.50;81.10;;;;;;5033532;28;20265;-83
2022/09/04 11:57:39;;;;;;;5.53;2.65;;;24.70;81.60;;;;;;5034576;28;20174;-84
2022/09/04 12:00:11;;;;;;;3.88;2.40;;;24.70;81.40;;;;;;5034769;28;20199;-83
2022/09/04 12:02:46;;;;;;;4.68;2.13;;;24.70;81.40;;;;;;5035364;28;20657;-85
2022/09/04 12:05:43;;;;;;;8.15;2.15;;;24.80;81.40;;;;;;5034439;28;20174;-83
2022/09/04 12:08:08;;;;;;;3.47;2.00;;;24.90;81.30;;;;;;5035504;28;20573;-83
2022/09/04 12:11:03;;;;;;;3.22;2.20;;;25.00;80.30;;;;;;5051152;28;20182;-85
2022/09/04 12:13:43;;;;;;;7.35;2.35;;;25.10;80.30;;;;;;5035437;28;20671;-84
2022/09/04 12:16:09;;;;;;;3.22;2.30;;;25.10;80.50;;;;;;5035290;28;20182;-84
2022/09/04 12:18:53;;;;;;;3.00;2.20;;;25.10;79.80;;;;;;5050775;28;20183;-83
2022/09/04 12:21:52;;;;;;;2.97;2.08;;;25.20;80.50;;;;;;5050110;28;20184;-83
2022/09/04 12:25:04;;;;;;;3.05;2.30;;;25.10;79.90;;;;;;5035210;28;20182;-84
2022/09/04 12:28:05;;;;;;;3.35;2.13;;;25.00;80.80;;;;;;5033752;28;20183;-84
2022/09/04 12:31:05;;;;;;;4.65;2.10;;;24.90;80.90;;;;;;5035006;28;20540;-83
2022/09/04 12:33:55;;;;;;;3.00;2.20;;;25.00;80.60;;;;;;5035038;28;20523;-83
2022/09/04 12:36:47;;;;;;;4.03;2.42;;;25.10;81.10;;;;;;5034347;28;20510;-84
2022/09/04 12:39:37;;;;;;;2.97;2.08;;;25.30;81.30;;;;;;5031998;28;20641;-81
2022/09/04 12:42:14;;;;;;;2.90;2.20;;;25.30;80.60;;;;;;5032606;28;20243;-83
2022/09/04 12:45:09;;;;;;;5.38;2.40;;;25.30;79.80;;;;;;5032789;28;20519;-82
2022/09/04 12:48:10;;;;;;;2.80;2.22;;;25.40;81.40;;;;;;5030653;28;20275;-82
2022/09/04 12:50:50;;;;;;;4.57;2.20;;;25.40;79.90;;;;;;5031855;28;20182;-82
2022/09/04 12:53:45;;;;;;;5.53;2.22;;;25.50;79.80;;;;;;5055564;28;20245;-83
2022/09/04 12:56:14;;;;;;;6.35;2.00;;;25.60;81.90;;;;;;5031539;28;20535;-83
2022/09/04 12:59:00;;;;;;;3.05;2.00;;;25.70;79.70;;;;;;5033933;28;20183;-83
2022/09/04 13:01:31;;;;;;;3.03;2.38;;;25.80;78.90;;;;;;5049220;28;20464;-83
2022/09/04 13:04:12;;;;;;;3.03;1.80;;;25.90;80.50;;;;;;5034351;28;20178;-81
2022/09/04 13:06:38;;;;;;;2.50;1.90;;;26.00;78.70;;;;;;5032728;28;20185;-82
2022/09/04 13:09:16;;;;;;;3.70;1.85;;;26.10;78.30;;;;;;5033233;28;20542;-83
2022/09/04 13:12:09;;;;;;;3.70;1.75;;;26.20;77.80;;;;;;5033346;28;20208;-82
2022/09/04 13:14:44;;;;;;;3.35;1.95;;;26.20;77.90;;;;;;5032852;28;20595;-84
2022/09/04 13:17:49;;;;;;;2.50;1.92;;;26.20;77.70;;;;;;5033179;28;20184;-81
2022/09/04 13:20:27;;;;;;;5.85;2.67;;;26.20;79.30;;;;;;5033315;28;20205;-82
2022/09/04 13:23:22;;;;;;;3.15;2.00;;;26.20;78.50;;;;;;5034232;28;20244;-81
2022/09/04 13:25:48;;;;;;;3.50;2.28;;;26.20;78.00;;;;;;5031718;28;20182;-82
2022/09/04 13:28:36;;;;;;;4.13;2.03;;;26.20;78.70;;;;;;5032408;28;20693;-81
2022/09/04 13:31:17;;;;;;;2.92;2.00;;;26.10;78.30;;;;;;5030546;28;20192;-82
2022/09/04 13:33:42;;;;;;;3.90;2.15;;;26.10;79.40;;;;;;5033879;28;20208;-82
2022/09/04 13:36:15;;;;;;;3.25;1.80;;;26.20;78.40;;;;;;5032696;28;20585;-81
2022/09/04 13:38:57;;;;;;;4.05;2.10;;;26.00;79.20;;;;;;5032659;28;20621;-82
2022/09/04 13:42:00;;;;;;;2.85;1.90;;;26.00;79.10;;;;;;5033170;28;20194;-82
2022/09/04 13:44:46;;;;;;;4.60;2.25;;;26.10;78.90;;;;;;5033060;28;20181;-82
2022/09/04 13:47:41;;;;;;;4.57;2.10;;;26.20;78.50;;;;;;5013823;28;20230;-81
2022/09/04 13:50:09;;;;;;;6.38;2.88;;;26.30;78.80;;;;;;5013942;28;20214;-82
2022/09/04 13:52:44;;;;;;;3.38;2.20;;;26.30;79.40;;;;;;5035769;28;20348;-82
2022/09/04 13:55:20;;;;;;;2.85;1.90;;;26.40;78.60;;;;;;5033314;28;20184;-82
2022/09/04 13:57:56;;;;;;;2.83;2.00;;;26.50;79.60;;;;;;5032472;28;20186;-82
2022/09/04 14:00:26;;;;;;;2.15;1.70;;;26.50;78.50;;;;;;5033778;28;20487;-83
2022/09/04 14:02:59;;;;;;;2.65;1.95;;;26.40;78.60;;;;;;5048764;28;20178;-86
2022/09/04 14:05:26;;;;;;;3.83;2.00;;;26.30;78.80;;;;;;5031992;28;20490;-84
2022/09/04 14:08:02;;;;;;;2.97;2.03;;;26.30;78.80;;;;;;5033733;28;20266;-83
2022/09/04 14:10:50;;;;;;;3.50;2.20;;;26.20;78.30;;;;;;5033580;28;20661;-82
2022/09/04 14:13:38;;;;;;;2.40;1.90;;;26.10;78.60;;;;;;5033672;28;20628;-83
2022/09/04 14:16:10;;;;;;;3.20;1.98;;;25.90;79.00;;;;;;5034175;28;20175;-82
2022/09/04 14:18:44;;;;;;;3.05;2.10;;;25.90;80.10;;;;;;5037892;28;20170;-85
2022/09/04 14:21:28;;;;;;;2.83;2.13;;;25.80;80.80;;;;;;5037286;28;20201;-82
2022/09/04 14:24:23;;;;;;;2.70;1.70;;;25.80;81.30;;;;;;5037668;28;20193;-82
2022/09/04 14:27:00;;;;;;;3.90;1.80;;;25.70;80.20;;;;;;5036258;28;20602;-82